Terminal Aerodrome Forecast
Issued by NWS

Home | Current Version | Previous Version | Text Only | Print | Product List | Glossary On
Versions: 1 2 3 4 5 6 7 8 9 10 11 12 13
000
FTUS41 KBTV 301731
TAFRUT
TAF
KRUT 301731Z 3018/0118 12005KT P6SM -RA BKN060 OVC100
      TEMPO 3018/3021 6SM RA BR SCT040 OVC060
     FM302100 16006KT P6SM VCSH SCT035 OVC060
     FM010300 14008KT P6SM OVC050
     FM011300 16008KT P6SM BKN050 BKN090
      AMD LTD TO CLD VIS AND WIND=

USA.gov is the U.S. government's official web portal to all federal, state and local government web resources and services.